createdAt,value
2022-10-21T00:01:00.082Z,6.58
2022-10-21T00:03:29.253Z,6.81
2022-10-21T00:05:58.753Z,7.37
2022-10-21T00:08:27.056Z,7.37
2022-10-21T00:10:56.210Z,7.38
2022-10-21T00:13:25.433Z,7.40
2022-10-21T00:16:03.102Z,7.41
2022-10-21T00:18:32.370Z,7.42
2022-10-21T00:21:00.716Z,7.43
2022-10-21T00:23:30.268Z,7.45
2022-10-21T00:25:58.665Z,7.10
2022-10-21T00:28:27.138Z,7.39
2022-10-21T00:30:57.191Z,7.52
2022-10-21T00:33:28.536Z,7.53
2022-10-21T00:35:58.516Z,7.47
2022-10-21T00:38:26.976Z,7.22
2022-10-21T00:40:55.308Z,7.60
2022-10-21T00:43:23.610Z,7.49
2022-10-21T00:45:55.305Z,7.30
2022-10-21T00:48:31.813Z,7.65
2022-10-21T00:51:04.602Z,7.64
2022-10-21T00:53:34.126Z,7.56
2022-10-21T00:56:06.434Z,7.68
2022-10-21T00:58:37.517Z,7.67
2022-10-21T01:01:08.994Z,7.68
2022-10-21T01:03:38.803Z,7.70
2022-10-21T01:06:12.890Z,7.71
2022-10-21T01:08:42.492Z,7.71
2022-10-21T01:11:15.631Z,7.64
2022-10-21T01:13:57.766Z,7.74
2022-10-21T01:16:34.765Z,7.51
2022-10-21T01:19:16.772Z,7.75
2022-10-21T01:21:52.778Z,7.73
2022-10-21T01:24:49.073Z,7.52
2022-10-21T01:27:26.153Z,7.61
2022-10-21T01:30:16.093Z,7.55
2022-10-21T01:35:49.210Z,7.38
2022-10-21T01:38:23.213Z,7.43
2022-10-21T01:40:57.996Z,7.41
2022-10-21T01:43:35.001Z,7.41
2022-10-21T01:46:08.035Z,7.41
2022-10-21T01:48:44.533Z,7.40
2022-10-21T01:51:14.293Z,7.38
2022-10-21T01:53:46.401Z,7.38
2022-10-21T01:56:16.686Z,7.41
2022-10-21T01:58:46.958Z,7.43
2022-10-21T02:01:16.946Z,7.44
2022-10-21T02:03:50.326Z,7.45
2022-10-21T02:06:18.285Z,7.16
2022-10-21T02:08:46.612Z,7.48
2022-10-21T02:11:16.601Z,7.49
2022-10-21T02:13:49.286Z,7.50
2022-10-21T02:16:19.821Z,7.41
2022-10-21T02:18:49.278Z,7.49
2022-10-21T02:21:21.783Z,7.25
2022-10-21T02:23:55.893Z,7.38
2022-10-21T02:26:25.695Z,7.34
2022-10-21T02:28:54.516Z,7.25
2022-10-21T02:31:52.867Z,7.38
2022-10-21T02:34:34.002Z,6.72
2022-10-21T02:37:16.343Z,7.33
2022-10-21T02:39:49.702Z,7.31
2022-10-21T02:42:24.261Z,7.28
2022-10-21T02:44:53.405Z,7.16
2022-10-21T02:47:21.829Z,7.26
2022-10-21T02:49:51.246Z,7.25
2022-10-21T02:52:19.239Z,7.24
2022-10-21T02:54:47.079Z,7.22
2022-10-21T02:57:15.384Z,7.19
2022-10-21T02:59:43.455Z,7.04
2022-10-21T03:02:11.307Z,6.31
2022-10-21T03:04:39.586Z,7.12
2022-10-21T03:07:08.932Z,7.03
2022-10-21T03:09:36.819Z,7.09
2022-10-21T03:12:05.194Z,6.92
2022-10-21T03:14:33.729Z,7.09
2022-10-21T03:17:01.616Z,7.06
2022-10-21T03:19:29.612Z,7.06
2022-10-21T03:21:57.733Z,6.95
2022-10-21T03:24:28.887Z,7.06
2022-10-21T03:26:57.324Z,7.06
2022-10-21T03:29:26.689Z,6.95
2022-10-21T03:31:54.601Z,6.97
2022-10-21T03:34:22.590Z,7.02
2022-10-21T03:36:50.601Z,6.69
2022-10-21T03:39:18.445Z,7.03
2022-10-21T03:41:47.871Z,6.96
2022-10-21T03:44:16.090Z,7.00
2022-10-21T03:46:44.128Z,6.99
2022-10-21T03:49:20.799Z,6.83
2022-10-21T03:51:49.842Z,6.96
2022-10-21T03:54:18.849Z,6.92
2022-10-21T03:56:48.077Z,6.90
2022-10-21T03:59:16.447Z,6.88
2022-10-21T04:01:47.126Z,6.84
2022-10-21T04:04:15.237Z,6.79
2022-10-21T04:06:43.189Z,6.64
2022-10-21T04:09:11.336Z,6.44
2022-10-21T04:11:39.451Z,6.65
2022-10-21T04:14:11.612Z,6.30
2022-10-21T04:16:42.700Z,6.34
2022-10-21T04:19:17.469Z,6.54
2022-10-21T04:21:45.833Z,6.04
2022-10-21T04:24:14.352Z,5.83
2022-10-21T04:26:42.702Z,6.42
2022-10-21T04:29:12.141Z,6.39
2022-10-21T04:31:40.198Z,6.35
2022-10-21T04:34:08.076Z,6.33
2022-10-21T04:36:36.128Z,5.84
2022-10-21T04:39:05.193Z,6.13
2022-10-21T04:41:33.113Z,6.26
2022-10-21T04:44:02.330Z,6.04
2022-10-21T04:46:31.728Z,6.27
2022-10-21T04:48:59.601Z,6.27
2022-10-21T04:51:27.698Z,5.94
2022-10-21T04:53:55.840Z,6.27
2022-10-21T04:56:23.749Z,6.27
2022-10-21T04:58:51.910Z,6.17
2022-10-21T05:01:20.186Z,6.22
2022-10-21T05:03:49.535Z,6.21
2022-10-21T05:06:17.534Z,6.19
2022-10-21T05:08:45.554Z,5.86
2022-10-21T05:11:13.471Z,6.18
2022-10-21T05:13:41.502Z,6.15
2022-10-21T05:16:09.554Z,6.12
2022-10-21T05:18:37.523Z,5.15
2022-10-21T05:21:07.104Z,6.07
2022-10-21T05:23:35.169Z,5.87
2022-10-21T05:26:03.077Z,6.03
2022-10-21T05:28:31.071Z,6.01
2022-10-21T05:30:59.030Z,6.00
2022-10-21T05:33:27.040Z,5.98
2022-10-21T05:36:01.102Z,5.98
2022-10-21T05:38:30.814Z,5.97
2022-10-21T05:40:59.573Z,5.52
2022-10-21T05:43:28.414Z,5.96
2022-10-21T05:45:56.360Z,5.80
2022-10-21T05:48:24.536Z,4.98
2022-10-21T05:50:53.891Z,5.45
2022-10-21T05:53:23.767Z,5.94
2022-10-21T05:56:01.161Z,5.76
2022-10-21T05:58:30.482Z,5.65
2022-10-21T06:00:59.296Z,5.92
2022-10-21T06:03:30.092Z,5.84
2022-10-21T06:05:58.312Z,5.83
2022-10-21T06:08:26.646Z,5.81
2022-10-21T06:11:02.442Z,5.95
2022-10-21T06:13:30.765Z,5.95
2022-10-21T06:15:59.370Z,5.96
2022-10-21T06:18:27.898Z,5.80
2022-10-21T06:20:55.854Z,6.01
2022-10-21T06:23:24.139Z,6.04
2022-10-21T06:26:00.160Z,6.05
2022-10-21T06:28:31.136Z,5.60
2022-10-21T06:30:59.475Z,6.08
2022-10-21T06:33:27.735Z,6.09
2022-10-21T06:35:56.379Z,6.10
2022-10-21T06:38:26.081Z,6.11
2022-10-21T06:40:54.365Z,6.13
2022-10-21T06:46:00.800Z,5.41
2022-10-21T06:48:28.817Z,6.11
2022-10-21T06:51:00.645Z,6.27
2022-10-21T06:53:30.162Z,6.00
2022-10-21T06:56:03.442Z,6.39
2022-10-21T06:58:31.941Z,6.27
2022-10-21T07:01:16.431Z,6.51
2022-10-21T07:03:56.248Z,6.80
2022-10-21T07:06:24.216Z,7.03
2022-10-21T07:08:59.546Z,7.28
2022-10-21T07:11:28.287Z,7.18
2022-10-21T07:13:56.786Z,7.78
2022-10-21T07:16:28.400Z,7.97
2022-10-21T07:18:56.971Z,8.06
2022-10-21T07:21:27.177Z,8.24
2022-10-21T07:23:59.094Z,8.76
2022-10-21T07:26:29.447Z,9.00
2022-10-21T07:28:58.883Z,9.45
2022-10-21T07:31:30.095Z,10.05
2022-10-21T07:33:58.352Z,10.40
2022-10-21T07:36:28.266Z,10.90
2022-10-21T07:39:00.629Z,11.18
2022-10-21T07:41:31.534Z,10.93
2022-10-21T07:44:01.438Z,10.77
2022-10-21T07:46:31.308Z,10.72
2022-10-21T07:48:59.250Z,11.45
2022-10-21T07:51:28.614Z,12.45
2022-10-21T07:53:59.405Z,13.39
2022-10-21T07:56:30.184Z,14.14
2022-10-21T07:58:58.677Z,14.77
2022-10-21T08:01:27.003Z,15.12
2022-10-21T08:03:57.164Z,15.60
2022-10-21T08:06:27.134Z,16.07
2022-10-21T08:08:57.578Z,16.44
2022-10-21T08:11:27.764Z,16.70
2022-10-21T08:13:56.600Z,16.98
2022-10-21T08:16:25.346Z,17.06
2022-10-21T08:18:53.920Z,17.14
2022-10-21T08:21:23.849Z,16.39
2022-10-21T08:23:51.715Z,16.29
2022-10-21T08:26:20.306Z,16.14
2022-10-21T08:28:48.428Z,15.60
2022-10-21T08:31:18.117Z,15.51
2022-10-21T08:33:46.832Z,15.05
2022-10-21T08:36:16.833Z,14.47
2022-10-21T08:38:46.550Z,13.91
2022-10-21T08:41:35.970Z,13.62
2022-10-21T08:44:07.324Z,13.54
2022-10-21T08:46:39.017Z,13.32
2022-10-21T08:49:13.004Z,13.07
2022-10-21T08:51:45.569Z,13.20
2022-10-21T08:54:20.316Z,13.14
2022-10-21T08:56:49.834Z,13.50
2022-10-21T08:59:22.812Z,14.06
2022-10-21T09:01:56.623Z,14.80
2022-10-21T09:04:34.830Z,15.45
2022-10-21T09:07:14.459Z,15.71
2022-10-21T09:09:52.373Z,15.64
2022-10-21T09:12:30.638Z,14.62
2022-10-21T09:15:13.335Z,14.65
2022-10-21T09:17:57.645Z,15.43
2022-10-21T09:20:40.532Z,16.32
2022-10-21T09:23:34.392Z,16.67
2022-10-21T09:26:09.197Z,16.63
2022-10-21T09:28:38.228Z,16.53
2022-10-21T09:31:16.907Z,16.52
2022-10-21T09:33:48.898Z,16.14
2022-10-21T09:36:20.933Z,16.20
2022-10-21T09:38:56.860Z,16.00
2022-10-21T09:41:32.485Z,15.58
2022-10-21T09:44:00.608Z,15.65
2022-10-21T09:46:28.909Z,15.60
2022-10-21T09:51:47.386Z,15.17
2022-10-21T09:54:20.649Z,15.23
2022-10-21T09:56:57.119Z,15.35
2022-10-21T09:59:29.193Z,15.43
2022-10-21T10:02:08.470Z,15.57
2022-10-21T10:04:36.714Z,15.48
2022-10-21T10:07:22.053Z,15.61
2022-10-21T10:09:50.250Z,15.65
2022-10-21T10:12:23.227Z,15.69
2022-10-21T10:14:51.942Z,15.90
2022-10-21T10:17:32.128Z,16.06
2022-10-21T10:20:13.350Z,15.91
2022-10-21T10:22:43.444Z,15.80
2022-10-21T10:25:21.698Z,15.62
2022-10-21T10:27:53.299Z,15.62
2022-10-21T10:30:22.477Z,15.58
2022-10-21T10:32:52.816Z,15.66
2022-10-21T10:35:29.482Z,15.76
2022-10-21T10:37:59.558Z,15.85
2022-10-21T10:40:32.635Z,15.99
2022-10-21T10:43:07.286Z,16.37
2022-10-21T10:45:36.368Z,16.59
2022-10-21T10:48:06.948Z,16.73
2022-10-21T10:50:47.141Z,16.97
2022-10-21T10:53:24.895Z,17.09
2022-10-21T10:55:59.777Z,17.11
2022-10-21T10:58:34.089Z,16.98
2022-10-21T11:01:06.316Z,16.88
2022-10-21T11:03:41.376Z,16.68
2022-10-21T11:06:16.795Z,16.15
2022-10-21T11:08:49.663Z,16.08
2022-10-21T11:11:24.959Z,15.79
2022-10-21T11:13:55.145Z,15.60
2022-10-21T11:16:50.545Z,15.36
2022-10-21T11:19:36.535Z,14.80
2022-10-21T11:22:14.271Z,14.96
2022-10-21T11:25:05.851Z,15.07
2022-10-21T11:27:50.127Z,15.10
2022-10-21T11:30:21.777Z,15.11
2022-10-21T11:33:03.935Z,14.73
2022-10-21T11:35:40.055Z,14.60
2022-10-21T11:38:31.230Z,14.45
2022-10-21T11:41:06.412Z,13.97
2022-10-21T11:43:45.358Z,14.07
2022-10-21T11:46:19.392Z,14.06
2022-10-21T11:49:02.539Z,13.98
2022-10-21T11:51:40.270Z,13.86
2022-10-21T11:54:54.405Z,13.86
2022-10-21T11:57:37.213Z,13.39
2022-10-21T12:00:13.831Z,13.76
2022-10-21T12:02:46.213Z,13.70
2022-10-21T12:05:24.068Z,13.61
2022-10-21T12:08:09.772Z,13.53
2022-10-21T12:10:43.249Z,13.29
2022-10-21T12:13:16.558Z,13.46
2022-10-21T12:15:50.155Z,13.20
2022-10-21T12:18:23.191Z,13.38
2022-10-21T12:20:54.280Z,13.32
2022-10-21T12:23:24.853Z,13.10
2022-10-21T12:26:11.413Z,13.23
2022-10-21T12:28:44.132Z,13.16
2022-10-21T12:31:29.022Z,13.10
2022-10-21T12:33:58.822Z,12.99
2022-10-21T12:36:42.948Z,12.88
2022-10-21T12:39:19.124Z,12.90
2022-10-21T12:41:48.607Z,12.89
2022-10-21T12:44:24.365Z,12.77
2022-10-21T12:46:55.435Z,12.70
2022-10-21T12:49:32.597Z,12.50
2022-10-21T12:52:09.654Z,12.41
2022-10-21T12:54:45.031Z,12.40
2022-10-21T12:57:25.399Z,12.16
2022-10-21T13:00:31.048Z,12.30
2022-10-21T13:03:02.869Z,12.23
2022-10-21T13:06:06.788Z,12.12
2022-10-21T13:08:53.663Z,12.06
2022-10-21T13:11:37.772Z,12.06
2022-10-21T13:14:35.137Z,11.97
2022-10-21T13:17:29.073Z,11.93
2022-10-21T13:20:17.744Z,11.92
2022-10-21T13:22:48.092Z,11.91
2022-10-21T13:25:23.356Z,11.97
2022-10-21T13:27:54.916Z,11.94
2022-10-21T13:30:31.565Z,11.85
2022-10-21T13:33:02.227Z,11.94
2022-10-21T13:35:34.368Z,11.83
2022-10-21T13:38:20.645Z,11.86
2022-10-21T13:40:51.098Z,11.85
2022-10-21T13:43:24.602Z,11.83
2022-10-21T13:46:04.911Z,11.47
2022-10-21T13:48:37.912Z,11.72
2022-10-21T13:51:16.054Z,11.65
2022-10-21T13:53:46.845Z,11.60
2022-10-21T13:56:21.979Z,11.34
2022-10-21T13:58:51.151Z,11.48
2022-10-21T14:01:21.945Z,11.42
2022-10-21T14:03:50.578Z,11.37
2022-10-21T14:06:26.318Z,11.35
2022-10-21T14:08:56.868Z,11.20
2022-10-21T14:11:28.576Z,11.31
2022-10-21T14:14:00.474Z,11.32
2022-10-21T14:16:34.222Z,11.32
2022-10-21T14:19:04.101Z,11.33
2022-10-21T14:21:36.933Z,11.20
2022-10-21T14:24:07.232Z,11.24
2022-10-21T14:26:36.018Z,11.21
2022-10-21T14:29:06.170Z,10.98
2022-10-21T14:31:34.309Z,11.14
2022-10-21T14:34:02.350Z,11.00
2022-10-21T14:36:31.965Z,11.04
2022-10-21T14:39:01.724Z,10.97
2022-10-21T14:41:35.483Z,10.93
2022-10-21T14:44:08.582Z,10.88
2022-10-21T14:46:45.752Z,10.72
2022-10-21T14:49:23.878Z,10.72
2022-10-21T14:51:57.252Z,10.67
2022-10-21T14:54:30.893Z,10.61
2022-10-21T14:57:01.470Z,10.55
2022-10-21T14:59:38.464Z,10.51
2022-10-21T15:02:16.973Z,10.44
2022-10-21T15:04:52.403Z,10.37
2022-10-21T15:07:29.887Z,10.20
2022-10-21T15:10:01.171Z,10.23
2022-10-21T15:12:41.224Z,10.16
2022-10-21T15:15:43.212Z,10.08
2022-10-21T15:18:14.309Z,9.84
2022-10-21T15:20:54.758Z,9.38
2022-10-21T15:23:27.987Z,9.71
2022-10-21T15:26:00.622Z,9.85
2022-10-21T15:28:32.827Z,9.79
2022-10-21T15:31:02.576Z,9.73
2022-10-21T15:33:31.549Z,9.63
2022-10-21T15:36:04.767Z,9.46
2022-10-21T15:38:32.598Z,9.62
2022-10-21T15:41:00.565Z,9.60
2022-10-21T15:43:28.905Z,9.38
2022-10-21T15:45:58.378Z,9.43
2022-10-21T15:48:26.233Z,9.38
2022-10-21T15:50:57.297Z,9.46
2022-10-21T15:53:25.344Z,9.24
2022-10-21T15:55:54.197Z,9.41
2022-10-21T15:58:22.119Z,8.38
2022-10-21T16:00:50.229Z,9.05
2022-10-21T16:03:19.496Z,9.31
2022-10-21T16:05:47.558Z,8.93
2022-10-21T16:08:15.675Z,9.26
2022-10-21T16:10:47.724Z,9.23
2022-10-21T16:13:16.221Z,9.21
2022-10-21T16:15:44.290Z,9.10
2022-10-21T16:18:14.185Z,9.19
2022-10-21T16:20:44.601Z,9.17
2022-10-21T16:23:12.633Z,9.17
2022-10-21T16:25:40.491Z,9.07
2022-10-21T16:28:08.601Z,9.16
2022-10-21T16:30:39.206Z,9.18
2022-10-21T16:33:07.776Z,8.85
2022-10-21T16:35:35.974Z,9.17
2022-10-21T16:38:05.166Z,9.16
2022-10-21T16:40:35.249Z,9.16
2022-10-21T16:43:03.396Z,9.15
2022-10-21T16:45:33.406Z,9.15
2022-10-21T16:48:04.375Z,9.15
2022-10-21T16:50:39.469Z,9.13
2022-10-21T16:53:09.538Z,9.09
2022-10-21T16:55:37.486Z,9.07
2022-10-21T16:58:05.593Z,9.05
2022-10-21T17:00:33.739Z,9.00
2022-10-21T17:03:02.020Z,8.67
2022-10-21T17:05:29.936Z,8.93
2022-10-21T17:07:58.874Z,8.92
2022-10-21T17:10:28.567Z,8.64
2022-10-21T17:12:59.335Z,8.69
2022-10-21T17:15:27.854Z,8.75
2022-10-21T17:17:55.818Z,8.72
2022-10-21T17:20:23.952Z,8.72
2022-10-21T17:22:52.026Z,8.18
2022-10-21T17:25:19.865Z,8.71
2022-10-21T17:27:49.346Z,8.72
2022-10-21T17:30:17.709Z,8.70
2022-10-21T17:32:45.578Z,8.69
2022-10-21T17:35:18.857Z,8.69
2022-10-21T17:37:47.836Z,8.44
2022-10-21T17:40:18.092Z,8.57
2022-10-21T17:42:46.170Z,8.49
2022-10-21T17:45:16.435Z,8.42
2022-10-21T17:47:44.689Z,8.34
2022-10-21T17:50:13.424Z,8.26
2022-10-21T17:52:42.038Z,8.19
2022-10-21T17:55:10.780Z,8.10
2022-10-21T17:57:38.785Z,8.02
2022-10-21T18:00:07.577Z,7.77
2022-10-21T18:02:38.226Z,7.93
2022-10-21T18:05:08.849Z,7.87
2022-10-21T18:07:37.159Z,7.81
2022-10-21T18:10:06.421Z,7.78
2022-10-21T18:12:34.650Z,7.54
2022-10-21T18:15:02.662Z,7.80
2022-10-21T18:17:30.558Z,7.53
2022-10-21T18:19:59.836Z,7.69
2022-10-21T18:22:27.845Z,7.96
2022-10-21T18:24:55.680Z,8.01
2022-10-21T18:27:24.369Z,8.06
2022-10-21T18:29:52.417Z,8.00
2022-10-21T18:32:20.317Z,8.14
2022-10-21T18:34:48.269Z,8.09
2022-10-21T18:37:17.656Z,8.25
2022-10-21T18:39:45.496Z,7.99
2022-10-21T18:42:13.781Z,8.25
2022-10-21T18:44:41.930Z,8.27
2022-10-21T18:47:09.901Z,8.17
2022-10-21T18:49:37.886Z,8.29
2022-10-21T18:52:06.103Z,8.35
2022-10-21T18:54:35.296Z,8.38
2022-10-21T18:57:03.756Z,8.39
2022-10-21T18:59:31.738Z,8.31
2022-10-21T19:02:00.036Z,8.45
2022-10-21T19:04:28.163Z,8.45
2022-10-21T19:06:56.169Z,8.47
2022-10-21T19:09:25.873Z,8.48
2022-10-21T19:11:55.306Z,8.04
2022-10-21T19:14:23.435Z,8.51
2022-10-21T19:16:51.300Z,8.51
2022-10-21T19:19:19.650Z,8.52
2022-10-21T19:21:47.865Z,8.52
2022-10-21T19:24:15.772Z,8.52
2022-10-21T19:26:47.053Z,8.27
2022-10-21T19:29:19.786Z,8.52
2022-10-21T19:31:48.302Z,8.11
2022-10-21T19:34:18.160Z,8.53
2022-10-21T19:36:46.058Z,8.52
2022-10-21T19:39:14.887Z,8.51
2022-10-21T19:41:43.358Z,8.27
2022-10-21T19:44:11.194Z,8.48
2022-10-21T19:46:40.845Z,8.47
2022-10-21T19:49:10.125Z,8.45
2022-10-21T19:51:38.537Z,8.33
2022-10-21T19:54:07.462Z,8.32
2022-10-21T19:56:36.104Z,8.34
2022-10-21T19:59:04.602Z,8.29
2022-10-21T20:01:33.667Z,8.19
2022-10-21T20:04:04.108Z,8.02
2022-10-21T20:06:34.431Z,8.05
2022-10-21T20:09:07.165Z,8.09
2022-10-21T20:11:35.734Z,8.14
2022-10-21T20:14:04.354Z,7.33
2022-10-21T20:16:34.516Z,8.04
2022-10-21T20:19:06.870Z,8.00
2022-10-21T20:21:36.205Z,7.89
2022-10-21T20:24:04.267Z,7.94
2022-10-21T20:26:32.423Z,7.91
2022-10-21T20:29:02.018Z,7.91
2022-10-21T20:31:30.391Z,7.66
2022-10-21T20:33:58.726Z,7.59
2022-10-21T20:36:29.813Z,7.94
2022-10-21T20:38:59.937Z,7.96
2022-10-21T20:41:31.005Z,7.98
2022-10-21T20:43:58.873Z,7.90
2022-10-21T20:46:27.436Z,7.98
2022-10-21T20:48:56.253Z,7.94
2022-10-21T20:51:26.867Z,7.91
2022-10-21T20:53:59.021Z,7.89
2022-10-21T20:56:29.229Z,7.88
2022-10-21T20:58:57.774Z,7.53
2022-10-21T21:01:28.854Z,7.74
2022-10-21T21:03:59.243Z,7.58
2022-10-21T21:06:28.062Z,7.66
2022-10-21T21:11:45.520Z,7.59
2022-10-21T21:14:13.444Z,7.53
2022-10-21T21:16:41.305Z,7.25
2022-10-21T21:19:13.109Z,7.42
2022-10-21T21:21:41.013Z,7.14
2022-10-21T21:24:10.327Z,7.35
2022-10-21T21:26:41.564Z,7.34
2022-10-21T21:29:10.085Z,7.18
2022-10-21T21:31:40.294Z,7.16
2022-10-21T21:34:09.414Z,7.25
2022-10-21T21:36:37.849Z,7.23
2022-10-21T21:39:07.332Z,7.23
2022-10-21T21:41:37.185Z,7.11
2022-10-21T21:44:05.952Z,7.23
2022-10-21T21:46:34.140Z,7.22
2022-10-21T21:49:06.144Z,7.23
2022-10-21T21:51:36.050Z,7.25
2022-10-21T21:54:05.598Z,7.31
2022-10-21T21:56:33.509Z,7.33
2022-10-21T21:59:03.067Z,7.34
2022-10-21T22:01:31.351Z,7.15
2022-10-21T22:04:00.838Z,7.36
2022-10-21T22:06:31.659Z,7.37
2022-10-21T22:09:00.567Z,7.41
2022-10-21T22:11:32.054Z,7.43
2022-10-21T22:14:00.256Z,7.44
2022-10-21T22:16:30.591Z,7.45
2022-10-21T22:19:00.713Z,7.48
2022-10-21T22:21:31.509Z,7.21
2022-10-21T22:23:59.988Z,7.47
2022-10-21T22:26:29.001Z,7.38
2022-10-21T22:28:57.055Z,7.40
2022-10-21T22:31:29.313Z,7.47
2022-10-21T22:34:01.134Z,7.47
2022-10-21T22:36:29.463Z,7.40
2022-10-21T22:38:57.488Z,7.43
2022-10-21T22:41:25.559Z,7.31
2022-10-21T22:43:53.773Z,6.96
2022-10-21T22:46:32.855Z,7.35
2022-10-21T22:49:04.345Z,7.35
2022-10-21T22:51:32.347Z,7.34
2022-10-21T22:54:01.318Z,7.33
2022-10-21T22:56:29.891Z,7.31
2022-10-21T22:58:58.337Z,7.31
2022-10-21T23:01:30.237Z,7.31
2022-10-21T23:04:02.802Z,7.30
2022-10-21T23:06:33.721Z,7.30
2022-10-21T23:09:02.629Z,7.29
2022-10-21T23:11:31.117Z,7.31
2022-10-21T23:14:03.324Z,7.32
2022-10-21T23:16:36.186Z,7.35
2022-10-21T23:19:04.521Z,7.24
2022-10-21T23:21:33.887Z,7.29
2022-10-21T23:24:01.918Z,7.39
2022-10-21T23:26:29.800Z,7.31
2022-10-21T23:28:57.875Z,7.46
2022-10-21T23:31:26.163Z,7.45
2022-10-21T23:33:54.109Z,7.32
2022-10-21T23:36:23.515Z,7.47
2022-10-21T23:38:57.018Z,7.48
2022-10-21T23:41:25.256Z,7.48
2022-10-21T23:43:53.645Z,7.48
2022-10-21T23:46:22.199Z,7.49
2022-10-21T23:48:50.307Z,7.38
2022-10-21T23:51:18.401Z,7.49
2022-10-21T23:53:46.461Z,7.39
2022-10-21T23:56:15.869Z,7.48
2022-10-21T23:58:43.940Z,7.46
